createdAt,value
2023-03-30T11:05:12.626Z,12.85
2023-03-30T11:07:45.227Z,12.93
2023-03-30T11:12:49.475Z,11.15
2023-03-30T11:15:22.847Z,14.43
2023-03-30T11:17:57.677Z,11.13
2023-03-30T11:20:30.481Z,13.23
2023-03-30T11:23:12.438Z,13.27
2023-03-30T11:25:54.283Z,12.30
2023-03-30T11:28:33.820Z,13.23
2023-03-30T11:31:13.629Z,13.82
2023-03-30T11:33:47.067Z,12.18
2023-03-30T11:36:21.176Z,12.68
2023-03-30T11:38:58.962Z,12.48
2023-03-30T11:41:36.802Z,8.85
2023-03-30T11:44:05.297Z,11.23
2023-03-30T11:46:41.457Z,9.55
2023-03-30T11:49:38.593Z,9.35
2023-03-30T11:52:21.701Z,8.70
2023-03-30T11:55:19.406Z,9.98
2023-03-30T11:57:57.948Z,12.45
2023-03-30T12:00:58.182Z,13.90
2023-03-30T12:03:38.642Z,9.82
2023-03-30T12:06:23.890Z,10.85
2023-03-30T12:09:05.473Z,13.18
2023-03-30T12:11:40.695Z,10.10
2023-03-30T12:14:26.417Z,7.25
2023-03-30T12:16:59.229Z,9.82
2023-03-30T12:19:37.539Z,7.70
2023-03-30T12:22:16.428Z,9.90
2023-03-30T12:24:53.055Z,10.45
2023-03-30T12:27:23.029Z,8.13
2023-03-30T12:32:28.741Z,8.00
2023-03-30T12:34:59.177Z,5.47
2023-03-30T12:37:30.331Z,7.43
2023-03-30T12:40:06.953Z,6.45
2023-03-30T12:42:36.751Z,5.22
2023-03-30T12:45:32.233Z,7.70
2023-03-30T12:48:16.483Z,8.93
2023-03-30T12:50:56.370Z,9.40
2023-03-30T12:53:49.480Z,5.35
2023-03-30T12:56:31.549Z,9.15
2023-03-30T12:59:31.948Z,7.18
2023-03-30T13:02:16.602Z,6.30
2023-03-30T13:04:49.130Z,5.72
2023-03-30T13:07:23.339Z,17.60
2023-03-30T13:09:57.954Z,5.93
2023-03-30T13:12:50.066Z,5.65
2023-03-30T13:15:39.810Z,7.57
2023-03-30T13:18:37.132Z,5.18
2023-03-30T13:21:20.786Z,6.57
2023-03-30T13:24:05.438Z,6.07
2023-03-30T13:26:45.476Z,6.95
2023-03-30T13:29:18.092Z,6.22
2023-03-30T13:32:19.881Z,6.13
2023-03-30T13:35:33.373Z,11.43
2023-03-30T13:38:40.728Z,6.43
2023-03-30T13:41:22.970Z,7.38
2023-03-30T13:44:04.644Z,6.72
2023-03-30T13:46:39.846Z,9.85
2023-03-30T13:49:33.726Z,5.82
2023-03-30T13:52:06.981Z,7.78
2023-03-30T13:54:40.043Z,6.15
2023-03-30T13:57:12.382Z,7.45
2023-03-30T13:59:44.587Z,5.95
2023-03-30T14:02:18.060Z,9.02
2023-03-30T14:04:49.244Z,7.85
2023-03-30T14:07:19.892Z,8.57
2023-03-30T14:10:12.668Z,9.93
2023-03-30T14:12:42.902Z,14.43
2023-03-30T14:15:18.346Z,8.75
2023-03-30T14:17:58.311Z,8.40
2023-03-30T14:20:52.850Z,10.60
2023-03-30T14:23:33.384Z,13.27
2023-03-30T14:29:04.983Z,13.38
2023-03-30T14:31:56.770Z,10.27
2023-03-30T14:34:35.300Z,10.50
2023-03-30T14:37:06.401Z,8.63
2023-03-30T14:39:41.717Z,11.50
2023-03-30T14:42:25.355Z,11.52
2023-03-30T14:45:01.035Z,8.48
2023-03-30T14:47:45.399Z,9.27
2023-03-30T14:50:22.607Z,13.18
2023-03-30T14:52:53.085Z,12.45
2023-03-30T14:55:25.534Z,9.63
2023-03-30T14:57:57.438Z,16.65
2023-03-30T15:00:32.104Z,9.23
2023-03-30T15:03:05.594Z,9.50
2023-03-30T15:05:39.330Z,7.55
2023-03-30T15:08:07.991Z,11.77
2023-03-30T15:10:45.695Z,11.65
2023-03-30T15:13:22.397Z,12.25
2023-03-30T15:15:54.467Z,11.15
2023-03-30T15:18:27.568Z,9.13
2023-03-30T15:20:57.864Z,12.05
2023-03-30T15:23:28.771Z,10.38
2023-03-30T15:26:00.968Z,10.98
2023-03-30T15:28:34.441Z,11.95
2023-03-30T15:31:03.081Z,10.30
2023-03-30T15:33:37.294Z,11.05
2023-03-30T15:36:12.893Z,8.52
2023-03-30T15:38:48.244Z,9.73
2023-03-30T15:41:17.927Z,13.40
2023-03-30T15:44:00.955Z,12.15
2023-03-30T15:46:29.362Z,7.65
2023-03-30T15:48:59.568Z,9.93
2023-03-30T15:51:33.315Z,9.45
2023-03-30T15:54:04.532Z,12.70
2023-03-30T15:56:38.566Z,14.23
2023-03-30T15:59:12.780Z,7.38
2023-03-30T16:01:45.318Z,10.68
2023-03-30T16:06:47.165Z,8.05
2023-03-30T16:09:16.090Z,9.05
2023-03-30T16:11:46.467Z,10.15
2023-03-30T16:14:18.343Z,16.40
2023-03-30T16:16:46.793Z,11.98
2023-03-30T16:19:17.611Z,10.85
2023-03-30T16:21:47.633Z,14.02
2023-03-30T16:24:15.867Z,10.60
2023-03-30T16:26:44.020Z,13.23
2023-03-30T16:29:20.126Z,14.35
2023-03-30T16:31:48.685Z,16.15
2023-03-30T16:34:19.430Z,12.30
2023-03-30T16:36:50.592Z,11.57
2023-03-30T16:39:21.208Z,10.75
2023-03-30T16:41:51.028Z,11.27
2023-03-30T16:44:21.095Z,13.93
2023-03-30T16:46:51.560Z,12.30
2023-03-30T16:49:23.417Z,13.10
2023-03-30T16:51:57.828Z,10.68
2023-03-30T16:56:58.200Z,11.70
2023-03-30T16:59:29.246Z,11.60
2023-03-30T17:01:59.173Z,16.75
2023-03-30T17:04:29.304Z,11.77
2023-03-30T17:07:01.186Z,14.85
2023-03-30T17:09:30.892Z,11.82
2023-03-30T17:11:59.463Z,12.38
2023-03-30T17:14:28.299Z,12.27
2023-03-30T17:16:57.225Z,16.15
2023-03-30T17:19:28.444Z,11.38
2023-03-30T17:21:59.160Z,14.57
2023-03-30T17:24:28.214Z,12.48
2023-03-30T17:26:58.356Z,13.98
2023-03-30T17:29:27.375Z,13.10
2023-03-30T17:31:56.289Z,9.65
2023-03-30T17:34:26.034Z,13.95
2023-03-30T17:36:55.206Z,15.90
2023-03-30T17:39:29.532Z,16.42
2023-03-30T17:42:00.346Z,14.73
2023-03-30T17:44:29.756Z,17.20
2023-03-30T17:46:58.995Z,15.25
2023-03-30T17:49:27.953Z,12.63
2023-03-30T17:52:04.099Z,14.65
2023-03-30T17:54:34.458Z,13.43
2023-03-30T17:57:04.151Z,12.75
2023-03-30T17:59:34.060Z,14.60
2023-03-30T18:02:03.778Z,14.25
2023-03-30T18:04:35.964Z,14.77
2023-03-30T18:07:05.234Z,16.30
2023-03-30T18:09:38.533Z,15.38
2023-03-30T18:12:08.760Z,12.32
2023-03-30T18:14:38.592Z,13.90
2023-03-30T18:17:09.038Z,15.00
2023-03-30T18:19:38.521Z,15.02
2023-03-30T18:22:08.102Z,13.60
2023-03-30T18:24:39.008Z,12.38
2023-03-30T18:27:11.113Z,12.75
2023-03-30T18:29:43.421Z,12.93
2023-03-30T18:32:13.619Z,14.45
2023-03-30T18:34:43.983Z,12.35
2023-03-30T18:37:15.035Z,10.75
2023-03-30T18:39:50.244Z,11.20
2023-03-30T18:42:22.105Z,10.07
2023-03-30T18:44:52.072Z,9.77
2023-03-30T18:47:22.747Z,8.73
2023-03-30T18:49:52.377Z,9.95
2023-03-30T18:52:21.943Z,12.38
2023-03-30T18:54:53.268Z,10.63
2023-03-30T18:57:22.800Z,16.13
2023-03-30T18:59:54.063Z,10.65
2023-03-30T19:02:24.460Z,12.25
2023-03-30T19:04:57.639Z,12.57
2023-03-30T19:07:28.138Z,10.38
2023-03-30T19:10:03.030Z,10.75
2023-03-30T19:12:33.534Z,9.80
2023-03-30T19:15:03.221Z,9.15
2023-03-30T19:17:33.431Z,14.50
2023-03-30T19:20:07.486Z,11.60
2023-03-30T19:22:39.708Z,15.43
2023-03-30T19:25:11.952Z,13.07
2023-03-30T19:27:51.962Z,16.15
2023-03-30T19:30:39.308Z,18.13
2023-03-30T19:33:12.762Z,15.30
2023-03-30T19:35:45.606Z,17.25
2023-03-30T19:40:47.922Z,19.95
2023-03-30T19:43:18.184Z,18.67
2023-03-30T19:45:53.354Z,17.27
2023-03-30T19:48:23.432Z,23.27
2023-03-30T19:50:52.793Z,21.17
2023-03-30T19:53:22.997Z,23.10
2023-03-30T19:55:55.392Z,28.60
2023-03-30T19:58:24.639Z,27.00
2023-03-30T20:00:54.359Z,27.90
2023-03-30T20:03:23.875Z,29.92
2023-03-30T20:05:53.468Z,26.05
2023-03-30T20:08:24.802Z,26.25
2023-03-30T20:10:59.412Z,25.85
2023-03-30T20:13:29.218Z,24.52
2023-03-30T20:16:00.625Z,21.92
2023-03-30T20:18:31.481Z,23.63
2023-03-30T20:21:06.017Z,21.95
2023-03-30T20:23:34.928Z,15.48
2023-03-30T20:26:06.750Z,18.60
2023-03-30T20:28:35.836Z,16.50
2023-03-30T20:31:05.739Z,16.95
2023-03-30T20:33:34.880Z,15.75
2023-03-30T20:36:03.917Z,25.65
2023-03-30T20:38:32.357Z,18.02
2023-03-30T20:41:04.398Z,17.98
2023-03-30T20:43:55.855Z,17.85
2023-03-30T20:46:35.537Z,20.17
2023-03-30T20:49:04.396Z,23.25
2023-03-30T20:51:32.710Z,24.67
2023-03-30T20:54:01.008Z,22.92
2023-03-30T20:56:30.209Z,24.15
2023-03-30T20:59:00.560Z,25.52
2023-03-30T21:01:30.360Z,23.58
2023-03-30T21:04:00.798Z,21.00
2023-03-30T21:06:31.488Z,18.42
2023-03-30T21:09:01.598Z,17.50
2023-03-30T21:11:32.011Z,19.27
2023-03-30T21:14:01.753Z,23.25
2023-03-30T21:16:30.434Z,17.83
2023-03-30T21:18:59.513Z,20.38
2023-03-30T21:21:27.937Z,25.52
2023-03-30T21:23:57.649Z,20.45
2023-03-30T21:26:26.520Z,20.90
2023-03-30T21:28:54.751Z,19.35
2023-03-30T21:31:25.427Z,18.60
2023-03-30T21:33:53.547Z,18.77
2023-03-30T21:36:23.119Z,20.02
2023-03-30T21:38:51.326Z,21.00
2023-03-30T21:41:21.284Z,18.13
2023-03-30T21:43:49.686Z,20.58
2023-03-30T21:46:19.696Z,25.00
2023-03-30T21:48:53.125Z,25.65
2023-03-30T21:51:24.498Z,22.67
2023-03-30T21:53:54.385Z,22.00
2023-03-30T21:56:24.411Z,14.07
2023-03-30T21:58:53.418Z,14.82
2023-03-30T22:01:24.433Z,16.50
2023-03-30T22:03:54.747Z,12.85
2023-03-30T22:06:23.746Z,12.63
2023-03-30T22:08:51.997Z,14.45
2023-03-30T22:11:24.098Z,12.52
2023-03-30T22:13:53.712Z,17.52
2023-03-30T22:16:24.149Z,15.38
2023-03-30T22:18:54.182Z,15.82
2023-03-30T22:21:25.127Z,21.40
2023-03-30T22:23:54.916Z,18.45
2023-03-30T22:26:24.295Z,18.38
2023-03-30T22:28:52.611Z,24.15
2023-03-30T22:31:20.837Z,15.23
2023-03-30T22:33:49.659Z,16.27
2023-03-30T22:36:21.005Z,16.92
2023-03-30T22:38:51.479Z,15.40
2023-03-30T22:41:23.991Z,16.75
2023-03-30T22:43:53.386Z,13.02
2023-03-30T22:46:22.022Z,14.40
2023-03-30T22:48:51.916Z,19.83
2023-03-30T22:51:26.961Z,12.90
2023-03-30T22:53:57.859Z,15.32
2023-03-30T22:56:26.235Z,13.70
2023-03-30T22:58:54.661Z,12.98
2023-03-30T23:01:22.849Z,11.27
2023-03-30T23:03:53.287Z,11.90
2023-03-30T23:06:23.556Z,14.77
2023-03-30T23:08:52.860Z,11.75
2023-03-30T23:11:22.142Z,11.85
2023-03-30T23:13:52.363Z,13.43
2023-03-30T23:16:20.551Z,13.18
2023-03-30T23:18:49.107Z,17.10
2023-03-30T23:21:17.334Z,15.18
2023-03-30T23:23:46.989Z,12.27
2023-03-30T23:26:15.168Z,14.95
2023-03-30T23:28:43.812Z,14.07
2023-03-30T23:31:13.915Z,12.70
2023-03-30T23:33:42.500Z,13.00
2023-03-30T23:36:14.012Z,15.10
2023-03-30T23:38:42.386Z,15.85
2023-03-30T23:41:14.585Z,12.80
2023-03-30T23:43:42.704Z,15.05
2023-03-30T23:46:11.106Z,13.63
2023-03-30T23:48:39.646Z,13.10
2023-03-30T23:51:08.223Z,15.10
2023-03-30T23:53:39.973Z,13.23
2023-03-30T23:56:13.134Z,13.30
2023-03-30T23:58:42.808Z,15.07
